createdAt,value
2022-10-15T00:01:48.678Z,84.24
2022-10-15T00:04:17.595Z,84.19
2022-10-15T00:06:45.883Z,84.45
2022-10-15T00:09:15.504Z,84.42
2022-10-15T00:11:43.746Z,84.54
2022-10-15T00:14:12.016Z,84.59
2022-10-15T00:16:40.433Z,84.62
2022-10-15T00:19:08.606Z,84.93
2022-10-15T00:21:37.368Z,85.05
2022-10-15T00:24:06.495Z,85.30
2022-10-15T00:26:36.181Z,85.50
2022-10-15T00:29:05.819Z,85.45
2022-10-15T00:31:34.904Z,85.76
2022-10-15T00:34:03.831Z,85.85
2022-10-15T00:36:34.688Z,85.82
2022-10-15T00:39:05.546Z,86.12
2022-10-15T00:41:37.942Z,86.31
2022-10-15T00:44:48.794Z,86.58
2022-10-15T00:47:20.415Z,86.77
2022-10-15T00:49:55.135Z,86.95
2022-10-15T00:52:28.492Z,86.91
2022-10-15T00:55:02.081Z,87.01
2022-10-15T00:57:32.458Z,87.40
2022-10-15T01:00:09.183Z,87.48
2022-10-15T01:02:37.591Z,87.47
2022-10-15T01:05:07.264Z,87.74
2022-10-15T01:07:35.731Z,87.71
2022-10-15T01:10:05.530Z,87.64
2022-10-15T01:12:53.963Z,87.63
2022-10-15T01:15:30.185Z,87.77
2022-10-15T01:18:04.854Z,87.96
2022-10-15T01:21:10.396Z,87.94
2022-10-15T01:24:53.497Z,88.00
2022-10-15T01:27:37.514Z,88.26
2022-10-15T01:30:32.111Z,88.47
2022-10-15T01:33:28.739Z,88.77
2022-10-15T01:36:08.422Z,88.38
2022-10-15T01:38:49.919Z,88.26
2022-10-15T01:41:27.998Z,88.04
2022-10-15T01:44:02.564Z,88.14
2022-10-15T01:47:00.166Z,88.09
2022-10-15T01:49:32.964Z,88.40
2022-10-15T01:52:10.571Z,88.39
2022-10-15T01:54:39.543Z,88.52
2022-10-15T01:57:09.538Z,88.70
2022-10-15T01:59:38.094Z,88.63
2022-10-15T02:02:07.674Z,88.85
2022-10-15T02:04:36.241Z,88.85
2022-10-15T02:07:08.550Z,88.75
2022-10-15T02:09:51.674Z,88.57
2022-10-15T02:12:33.313Z,88.64
2022-10-15T02:15:12.131Z,89.05
2022-10-15T02:17:47.595Z,89.08
2022-10-15T02:20:22.131Z,89.24
2022-10-15T02:22:57.458Z,89.26
2022-10-15T02:25:27.076Z,89.45
2022-10-15T02:27:58.123Z,89.91
2022-10-15T02:30:30.291Z,90.00
2022-10-15T02:33:00.860Z,89.88
2022-10-15T02:35:29.696Z,89.74
2022-10-15T02:38:03.648Z,89.78
2022-10-15T02:40:36.974Z,90.09
2022-10-15T02:43:07.830Z,89.89
2022-10-15T02:45:36.639Z,90.05
2022-10-15T02:48:07.995Z,89.91
2022-10-15T02:50:36.739Z,89.72
2022-10-15T02:53:05.604Z,89.58
2022-10-15T02:55:35.189Z,89.53
2022-10-15T02:58:03.549Z,89.41
2022-10-15T03:00:32.227Z,89.33
2022-10-15T03:03:00.816Z,89.13
2022-10-15T03:05:31.236Z,89.22
2022-10-15T03:08:01.296Z,89.36
2022-10-15T03:10:30.333Z,89.24
2022-10-15T03:13:04.637Z,89.34
2022-10-15T03:15:37.677Z,89.48
2022-10-15T03:18:06.938Z,89.66
2022-10-15T03:20:37.825Z,89.96
2022-10-15T03:23:06.238Z,89.97
2022-10-15T03:25:34.646Z,90.13
2022-10-15T03:28:06.145Z,90.28
2022-10-15T03:30:41.416Z,90.13
2022-10-15T03:33:09.920Z,90.32
2022-10-15T03:35:40.871Z,90.43
2022-10-15T03:38:10.582Z,90.37
2022-10-15T03:40:39.279Z,90.29
2022-10-15T03:43:27.976Z,90.23
2022-10-15T03:45:57.444Z,90.14
2022-10-15T03:48:26.359Z,90.43
2022-10-15T03:50:56.198Z,90.30
2022-10-15T03:53:24.716Z,90.32
2022-10-15T03:55:53.113Z,90.65
2022-10-15T03:58:21.615Z,91.19
2022-10-15T04:00:56.171Z,91.86
2022-10-15T04:03:24.566Z,92.43
2022-10-15T04:05:55.995Z,93.25
2022-10-15T04:08:29.220Z,93.78
2022-10-15T04:10:59.142Z,93.97
2022-10-15T04:13:28.373Z,94.33
2022-10-15T04:15:57.432Z,94.32
2022-10-15T04:18:25.983Z,94.56
2022-10-15T04:21:00.203Z,94.45
2022-10-15T04:23:29.125Z,94.52
2022-10-15T04:26:16.098Z,94.79
2022-10-15T04:28:44.641Z,94.85
2022-10-15T04:31:13.101Z,95.06
2022-10-15T04:33:41.716Z,95.02
2022-10-15T04:36:14.988Z,94.90
2022-10-15T04:39:04.697Z,95.08
2022-10-15T04:41:42.401Z,95.34
2022-10-15T04:44:22.362Z,95.39
2022-10-15T04:46:56.110Z,95.47
2022-10-15T04:49:34.234Z,95.46
2022-10-15T04:52:10.073Z,95.43
2022-10-15T04:54:47.001Z,95.23
2022-10-15T04:57:15.143Z,95.57
2022-10-15T04:59:44.449Z,95.76
2022-10-15T05:02:32.945Z,96.03
2022-10-15T05:05:39.855Z,95.78
2022-10-15T05:08:10.094Z,95.74
2022-10-15T05:11:03.017Z,95.38
2022-10-15T05:13:33.084Z,95.25
2022-10-15T05:16:10.224Z,95.18
2022-10-15T05:18:38.953Z,95.05
2022-10-15T05:21:08.004Z,94.85
2022-10-15T05:23:39.036Z,94.92
2022-10-15T05:26:32.176Z,94.57
2022-10-15T05:29:01.703Z,94.29
2022-10-15T05:31:34.589Z,94.04
2022-10-15T05:34:14.299Z,93.98
2022-10-15T05:36:48.948Z,94.12
2022-10-15T05:39:19.044Z,94.98
2022-10-15T05:41:47.587Z,95.01
2022-10-15T05:44:16.148Z,95.33
2022-10-15T05:46:44.485Z,95.60
2022-10-15T05:49:19.191Z,95.76
2022-10-15T05:52:02.464Z,96.33
2022-10-15T05:54:49.556Z,96.78
2022-10-15T05:57:17.948Z,96.80
2022-10-15T05:59:46.232Z,96.57
2022-10-15T06:02:16.325Z,96.19
2022-10-15T06:04:44.870Z,96.19
2022-10-15T06:07:13.175Z,96.83
2022-10-15T06:09:41.572Z,97.44
2022-10-15T06:12:11.238Z,97.79
2022-10-15T06:14:39.468Z,98.15
2022-10-15T06:17:08.379Z,98.12
2022-10-15T06:19:36.664Z,98.17
2022-10-15T06:22:05.150Z,98.86
2022-10-15T06:24:33.459Z,98.61
2022-10-15T06:27:02.927Z,98.73
2022-10-15T06:29:32.652Z,98.93
2022-10-15T06:32:02.962Z,99.11
2022-10-15T06:34:31.395Z,99.23
2022-10-15T06:36:59.679Z,99.12
2022-10-15T06:39:28.009Z,99.39
2022-10-15T06:41:56.294Z,99.77
2022-10-15T06:44:32.892Z,100.00
2022-10-15T06:47:01.212Z,99.87
2022-10-15T06:49:29.505Z,100.00
2022-10-15T06:52:02.584Z,100.00
2022-10-15T06:54:32.290Z,100.00
2022-10-15T06:57:00.596Z,100.00
2022-10-15T06:59:28.853Z,100.00
2022-10-15T07:01:59.030Z,100.00
2022-10-15T07:04:27.374Z,100.00
2022-10-15T07:06:55.654Z,100.00
2022-10-15T07:09:26.132Z,100.00
2022-10-15T07:11:54.474Z,100.00
2022-10-15T07:14:22.761Z,100.00
2022-10-15T07:16:51.175Z,100.00
2022-10-15T07:19:21.294Z,100.00
2022-10-15T07:21:50.466Z,100.00
2022-10-15T07:24:19.667Z,100.00
2022-10-15T07:26:49.088Z,100.00
2022-10-15T07:29:17.840Z,100.00
2022-10-15T07:31:47.741Z,100.00
2022-10-15T07:34:18.165Z,100.00
2022-10-15T07:36:47.894Z,100.00
2022-10-15T07:39:18.928Z,100.00
2022-10-15T07:41:47.224Z,100.00
2022-10-15T07:44:15.453Z,100.00
2022-10-15T07:46:43.809Z,100.00
2022-10-15T07:49:12.142Z,100.00
2022-10-15T07:51:40.463Z,100.00
2022-10-15T07:54:10.129Z,100.00
2022-10-15T07:56:38.437Z,100.00
2022-10-15T07:59:06.679Z,100.00
2022-10-15T08:01:35.195Z,100.00
2022-10-15T08:04:04.171Z,100.00
2022-10-15T08:06:33.448Z,100.00
2022-10-15T08:09:01.760Z,100.00
2022-10-15T08:11:32.069Z,100.00
2022-10-15T08:14:00.490Z,100.00
2022-10-15T08:16:28.855Z,100.00
2022-10-15T08:19:00.605Z,100.00
2022-10-15T08:21:28.970Z,100.00
2022-10-15T08:23:57.193Z,100.00
2022-10-15T08:26:36.018Z,100.00
2022-10-15T08:29:04.632Z,100.00
2022-10-15T08:31:33.301Z,100.00
2022-10-15T08:34:01.942Z,100.00
2022-10-15T08:36:30.486Z,100.00
2022-10-15T08:38:59.280Z,100.00
2022-10-15T08:41:37.137Z,99.82
2022-10-15T08:44:06.410Z,100.00
2022-10-15T08:46:39.964Z,100.00
2022-10-15T08:49:15.744Z,100.00
2022-10-15T08:51:53.506Z,100.00
2022-10-15T08:54:22.113Z,99.34
2022-10-15T08:57:03.586Z,99.43
2022-10-15T08:59:38.762Z,99.95
2022-10-15T09:02:18.383Z,100.00
2022-10-15T09:04:55.378Z,100.00
2022-10-15T09:07:31.246Z,100.00
2022-10-15T09:10:12.272Z,100.00
2022-10-15T09:12:52.498Z,100.00
2022-10-15T09:15:25.491Z,100.00
2022-10-15T09:17:57.008Z,100.00
2022-10-15T09:20:34.070Z,100.00
2022-10-15T09:23:02.898Z,100.00
2022-10-15T09:25:37.147Z,100.00
2022-10-15T09:28:17.002Z,100.00
2022-10-15T09:30:50.953Z,100.00
2022-10-15T09:33:34.924Z,100.00
2022-10-15T09:36:24.867Z,100.00
2022-10-15T09:39:06.326Z,100.00
2022-10-15T09:41:51.640Z,100.00
2022-10-15T09:44:26.548Z,100.00
2022-10-15T09:46:54.867Z,100.00
2022-10-15T09:49:29.358Z,100.00
2022-10-15T09:52:10.432Z,100.00
2022-10-15T09:54:47.405Z,100.00
2022-10-15T09:57:18.736Z,100.00
2022-10-15T10:00:14.784Z,100.00
2022-10-15T10:02:44.210Z,100.00
2022-10-15T10:05:30.541Z,100.00
2022-10-15T10:08:11.071Z,100.00
2022-10-15T10:10:41.854Z,100.00
2022-10-15T10:13:25.891Z,100.00
2022-10-15T10:15:59.481Z,100.00
2022-10-15T10:18:28.251Z,100.00
2022-10-15T10:20:59.909Z,100.00
2022-10-15T10:23:34.823Z,100.00
2022-10-15T10:26:04.642Z,100.00
2022-10-15T10:28:39.383Z,100.00
2022-10-15T10:31:13.653Z,100.00
2022-10-15T10:33:47.746Z,100.00
2022-10-15T10:36:28.382Z,100.00
2022-10-15T10:39:02.796Z,100.00
2022-10-15T10:41:50.503Z,100.00
2022-10-15T10:44:30.921Z,100.00
2022-10-15T10:47:16.462Z,100.00
2022-10-15T10:49:47.401Z,100.00
2022-10-15T10:52:28.928Z,100.00
2022-10-15T10:55:03.024Z,100.00
2022-10-15T10:57:42.648Z,100.00
2022-10-15T11:00:17.607Z,100.00
2022-10-15T11:02:52.728Z,100.00
2022-10-15T11:05:28.895Z,100.00
2022-10-15T11:08:09.964Z,100.00
2022-10-15T11:10:47.106Z,100.00
2022-10-15T11:13:39.084Z,100.00
2022-10-15T11:16:20.725Z,100.00
2022-10-15T11:19:19.715Z,100.00
2022-10-15T11:22:15.638Z,100.00
2022-10-15T11:25:05.895Z,100.00
2022-10-15T11:27:51.824Z,100.00
2022-10-15T11:30:39.640Z,100.00
2022-10-15T11:33:28.874Z,100.00
2022-10-15T11:36:21.420Z,100.00
2022-10-15T11:39:01.481Z,100.00
2022-10-15T11:41:44.937Z,100.00
2022-10-15T11:44:33.922Z,100.00
2022-10-15T11:47:25.464Z,100.00
2022-10-15T11:50:09.436Z,100.00
2022-10-15T11:52:59.477Z,100.00
2022-10-15T11:55:36.508Z,100.00
2022-10-15T11:58:13.198Z,100.00
2022-10-15T12:00:46.875Z,100.00
2022-10-15T12:03:20.959Z,100.00
2022-10-15T12:05:54.908Z,100.00
2022-10-15T12:08:29.499Z,100.00
2022-10-15T12:11:22.079Z,100.00
2022-10-15T12:13:58.023Z,100.00
2022-10-15T12:16:35.024Z,100.00
2022-10-15T12:19:15.376Z,100.00
2022-10-15T12:22:06.898Z,100.00
2022-10-15T12:24:56.682Z,100.00
2022-10-15T12:27:35.538Z,100.00
2022-10-15T12:30:23.742Z,100.00
2022-10-15T12:32:53.987Z,100.00
2022-10-15T12:35:45.566Z,100.00
2022-10-15T12:38:28.194Z,100.00
2022-10-15T12:41:11.107Z,100.00
2022-10-15T12:43:43.384Z,100.00
2022-10-15T12:46:12.991Z,99.93
2022-10-15T12:48:43.772Z,99.45
2022-10-15T12:51:39.398Z,99.48
2022-10-15T12:54:41.577Z,98.38
2022-10-15T12:57:55.767Z,96.57
2022-10-15T13:00:42.615Z,93.17
2022-10-15T13:03:43.796Z,89.54
2022-10-15T13:06:34.321Z,84.65
2022-10-15T13:09:25.247Z,80.83
2022-10-15T13:11:55.888Z,81.50
2022-10-15T13:14:32.974Z,80.24
2022-10-15T13:17:05.338Z,78.98
2022-10-15T13:19:39.735Z,80.09
2022-10-15T13:22:22.368Z,78.93
2022-10-15T13:24:50.797Z,79.09
2022-10-15T13:27:26.992Z,80.19
2022-10-15T13:29:59.387Z,79.60
2022-10-15T13:32:30.833Z,80.08
2022-10-15T13:35:00.039Z,79.96
2022-10-15T13:37:36.244Z,79.68
2022-10-15T13:40:08.040Z,79.51
2022-10-15T13:42:36.914Z,79.42
2022-10-15T13:45:18.904Z,79.76
2022-10-15T13:47:50.491Z,79.96
2022-10-15T13:50:23.021Z,80.45
2022-10-15T13:52:55.314Z,80.73
2022-10-15T13:55:28.530Z,80.13
2022-10-15T13:58:01.662Z,79.08
2022-10-15T14:00:35.062Z,79.62
2022-10-15T14:03:25.745Z,78.74
2022-10-15T14:05:56.742Z,78.75
2022-10-15T14:08:29.766Z,79.00
2022-10-15T14:11:00.418Z,79.07
2022-10-15T14:13:29.242Z,78.61
2022-10-15T14:16:15.294Z,78.30
2022-10-15T14:18:49.159Z,78.35
2022-10-15T14:21:21.100Z,76.34
2022-10-15T14:23:50.939Z,75.64
2022-10-15T14:26:25.835Z,75.33
2022-10-15T14:28:55.892Z,74.71
2022-10-15T14:31:42.491Z,74.85
2022-10-15T14:34:30.325Z,73.38
2022-10-15T14:36:58.952Z,73.10
2022-10-15T14:39:31.719Z,72.18
2022-10-15T14:42:02.494Z,70.52
2022-10-15T14:44:44.557Z,69.98
2022-10-15T14:47:22.282Z,69.98
2022-10-15T14:49:54.181Z,69.97
2022-10-15T14:52:23.634Z,70.65
2022-10-15T14:55:04.287Z,72.55
2022-10-15T14:57:37.512Z,73.71
2022-10-15T15:00:22.072Z,73.94
2022-10-15T15:02:52.061Z,72.99
2022-10-15T15:05:24.203Z,73.42
2022-10-15T15:07:52.899Z,71.62
2022-10-15T15:10:21.770Z,69.74
2022-10-15T15:12:54.904Z,69.31
2022-10-15T15:15:26.498Z,69.44
2022-10-15T15:17:56.227Z,69.63
2022-10-15T15:20:25.982Z,69.09
2022-10-15T15:22:56.418Z,69.72
2022-10-15T15:25:33.629Z,69.54
2022-10-15T15:28:02.305Z,69.99
2022-10-15T15:30:34.330Z,69.71
2022-10-15T15:33:04.153Z,70.41
2022-10-15T15:35:41.059Z,70.63
2022-10-15T15:38:09.524Z,70.33
2022-10-15T15:40:37.850Z,70.25
2022-10-15T15:43:06.279Z,70.78
2022-10-15T15:45:34.825Z,71.22
2022-10-15T15:48:05.223Z,71.30
2022-10-15T15:50:33.685Z,71.79
2022-10-15T15:53:01.974Z,71.22
2022-10-15T15:55:30.585Z,71.44
2022-10-15T15:57:58.853Z,71.62
2022-10-15T16:00:27.260Z,71.95
2022-10-15T16:02:57.907Z,71.61
2022-10-15T16:05:28.065Z,71.47
2022-10-15T16:07:56.394Z,70.75
2022-10-15T16:10:25.250Z,71.14
2022-10-15T16:12:53.726Z,71.28
2022-10-15T16:15:21.980Z,71.62
2022-10-15T16:17:50.354Z,71.49
2022-10-15T16:20:18.808Z,71.79
2022-10-15T16:22:51.103Z,71.98
2022-10-15T16:25:19.644Z,72.11
2022-10-15T16:27:49.310Z,72.39
2022-10-15T16:30:17.996Z,72.64
2022-10-15T16:32:46.458Z,73.16
2022-10-15T16:35:14.882Z,73.22
2022-10-15T16:37:43.181Z,73.69
2022-10-15T16:40:14.943Z,73.98
2022-10-15T16:42:43.279Z,74.34
2022-10-15T16:45:12.452Z,74.50
2022-10-15T16:47:40.695Z,74.55
2022-10-15T16:50:10.443Z,74.64
2022-10-15T16:52:38.901Z,74.92
2022-10-15T16:55:08.158Z,74.86
2022-10-15T16:57:37.869Z,75.34
2022-10-15T17:00:07.455Z,75.72
2022-10-15T17:02:35.714Z,75.88
2022-10-15T17:05:04.107Z,76.16
2022-10-15T17:07:32.626Z,76.71
2022-10-15T17:10:00.995Z,76.75
2022-10-15T17:12:29.605Z,77.15
2022-10-15T17:14:59.237Z,77.38
2022-10-15T17:17:27.699Z,77.26
2022-10-15T17:19:55.992Z,77.34
2022-10-15T17:22:24.902Z,76.62
2022-10-15T17:24:53.538Z,76.64
2022-10-15T17:27:21.823Z,76.05
2022-10-15T17:29:50.134Z,76.60
2022-10-15T17:32:19.820Z,76.98
2022-10-15T17:34:48.327Z,77.95
2022-10-15T17:37:16.785Z,78.12
2022-10-15T17:39:45.280Z,78.71
2022-10-15T17:42:15.689Z,78.91
2022-10-15T17:44:44.006Z,78.91
2022-10-15T17:47:13.395Z,79.13
2022-10-15T17:49:43.069Z,79.15
2022-10-15T17:52:11.826Z,79.15
2022-10-15T17:54:40.331Z,78.64
2022-10-15T17:57:08.632Z,78.26
2022-10-15T17:59:36.985Z,77.58
2022-10-15T18:02:05.453Z,77.12
2022-10-15T18:04:40.502Z,76.74
2022-10-15T18:07:10.201Z,76.78
2022-10-15T18:09:38.595Z,76.64
2022-10-15T18:12:07.513Z,76.60
2022-10-15T18:14:36.886Z,76.52
2022-10-15T18:17:06.316Z,76.46
2022-10-15T18:19:34.681Z,76.44
2022-10-15T18:22:02.982Z,76.40
2022-10-15T18:24:33.125Z,75.95
2022-10-15T18:27:06.172Z,75.70
2022-10-15T18:29:35.995Z,75.64
2022-10-15T18:32:04.684Z,75.70
2022-10-15T18:34:34.229Z,75.83
2022-10-15T18:37:02.544Z,75.49
2022-10-15T18:39:32.231Z,75.54
2022-10-15T18:42:00.596Z,75.59
2022-10-15T18:44:29.342Z,75.81
2022-10-15T18:46:57.708Z,75.59
2022-10-15T18:49:26.230Z,75.82
2022-10-15T18:51:55.434Z,75.67
2022-10-15T18:54:24.097Z,75.92
2022-10-15T18:56:53.886Z,75.79
2022-10-15T18:59:22.426Z,76.19
2022-10-15T19:01:53.743Z,76.70
2022-10-15T19:04:24.492Z,77.22
2022-10-15T19:06:54.444Z,77.07
2022-10-15T19:09:26.473Z,77.49
2022-10-15T19:11:58.297Z,77.69
2022-10-15T19:14:29.162Z,78.00
2022-10-15T19:16:58.356Z,78.33
2022-10-15T19:19:27.549Z,78.82
2022-10-15T19:21:58.847Z,79.06
2022-10-15T19:24:27.149Z,79.47
2022-10-15T19:26:57.028Z,79.73
2022-10-15T19:29:25.470Z,79.91
2022-10-15T19:31:56.785Z,79.88
2022-10-15T19:34:25.594Z,80.05
2022-10-15T19:36:53.961Z,79.99
2022-10-15T19:39:24.913Z,79.96
2022-10-15T19:41:54.379Z,80.02
2022-10-15T19:44:27.614Z,80.14
2022-10-15T19:46:56.359Z,80.01
2022-10-15T19:49:25.296Z,80.56
2022-10-15T19:51:54.799Z,80.80
2022-10-15T19:56:56.765Z,81.12
2022-10-15T19:59:26.535Z,81.29
2022-10-15T20:01:54.923Z,80.99
2022-10-15T20:04:23.727Z,81.22
2022-10-15T20:06:52.879Z,81.26
2022-10-15T20:09:21.192Z,81.19
2022-10-15T20:11:49.592Z,81.30
2022-10-15T20:14:17.870Z,81.40
2022-10-15T20:16:47.580Z,81.31
2022-10-15T20:19:15.970Z,81.17
2022-10-15T20:21:44.415Z,81.13
2022-10-15T20:24:12.722Z,80.99
2022-10-15T20:26:40.999Z,80.69
2022-10-15T20:29:09.595Z,80.67
2022-10-15T20:31:37.900Z,80.82
2022-10-15T20:34:07.569Z,80.80
2022-10-15T20:36:41.099Z,80.80
2022-10-15T20:39:09.516Z,80.88
2022-10-15T20:41:38.003Z,81.04
2022-10-15T20:44:06.715Z,81.29
2022-10-15T20:46:39.769Z,81.49
2022-10-15T20:49:16.258Z,81.71
2022-10-15T20:51:46.342Z,81.89
2022-10-15T20:54:16.716Z,81.99
2022-10-15T20:56:45.062Z,82.01
2022-10-15T20:59:13.915Z,81.94
2022-10-15T21:01:42.507Z,81.80
2022-10-15T21:04:12.262Z,81.06
2022-10-15T21:06:40.872Z,81.23
2022-10-15T21:09:09.326Z,81.04
2022-10-15T21:11:42.700Z,80.82
2022-10-15T21:14:11.366Z,80.78
2022-10-15T21:16:39.920Z,80.98
2022-10-15T21:19:08.447Z,81.12
2022-10-15T21:21:38.129Z,80.94
2022-10-15T21:24:07.137Z,80.29
2022-10-15T21:26:35.377Z,80.50
2022-10-15T21:29:03.823Z,80.28
2022-10-15T21:31:32.268Z,80.17
2022-10-15T21:34:00.590Z,80.03
2022-10-15T21:36:30.053Z,79.94
2022-10-15T21:39:02.508Z,80.11
2022-10-15T21:41:33.602Z,80.08
2022-10-15T21:44:03.138Z,79.84
2022-10-15T21:46:32.266Z,79.79
2022-10-15T21:49:01.567Z,79.89
2022-10-15T21:51:32.218Z,79.59
2022-10-15T21:54:04.305Z,79.31
2022-10-15T21:56:32.824Z,79.29
2022-10-15T21:59:01.266Z,79.17
2022-10-15T22:01:32.177Z,78.86
2022-10-15T22:04:02.609Z,78.78
2022-10-15T22:06:31.994Z,78.48
2022-10-15T22:09:02.800Z,78.48
2022-10-15T22:11:34.968Z,78.55
2022-10-15T22:14:07.574Z,78.55
2022-10-15T22:16:38.611Z,78.31
2022-10-15T22:19:09.155Z,78.40
2022-10-15T22:21:39.876Z,78.43
2022-10-15T22:24:12.236Z,78.21
2022-10-15T22:26:43.356Z,78.27
2022-10-15T22:29:20.425Z,78.16
2022-10-15T22:31:48.922Z,77.83
2022-10-15T22:34:17.627Z,77.67
2022-10-15T22:36:46.319Z,77.60
2022-10-15T22:39:18.464Z,77.20
2022-10-15T22:41:48.813Z,76.70
2022-10-15T22:44:20.862Z,76.37
2022-10-15T22:46:50.111Z,75.86
2022-10-15T22:49:21.110Z,75.82
2022-10-15T22:51:50.360Z,75.63
2022-10-15T22:54:22.782Z,75.19
2022-10-15T22:56:51.910Z,75.03
2022-10-15T22:59:20.781Z,74.94
2022-10-15T23:01:49.134Z,75.02
2022-10-15T23:04:18.019Z,74.68
2022-10-15T23:06:46.370Z,74.52
2022-10-15T23:09:17.929Z,74.60
2022-10-15T23:11:48.192Z,74.54
2022-10-15T23:14:18.539Z,74.53
2022-10-15T23:16:49.028Z,74.37
2022-10-15T23:19:20.073Z,74.01
2022-10-15T23:21:50.542Z,74.15
2022-10-15T23:24:21.322Z,74.25
2022-10-15T23:26:51.028Z,73.87
2022-10-15T23:29:22.333Z,74.01
2022-10-15T23:31:52.723Z,73.80
2022-10-15T23:34:23.233Z,73.81
2022-10-15T23:36:52.628Z,73.67
2022-10-15T23:39:23.449Z,73.80
2022-10-15T23:41:53.531Z,73.81
2022-10-15T23:44:25.350Z,73.85
2022-10-15T23:46:54.019Z,73.90
2022-10-15T23:49:22.343Z,73.96
2022-10-15T23:51:50.615Z,73.67
2022-10-15T23:54:19.876Z,74.14
2022-10-15T23:56:49.009Z,74.18
2022-10-15T23:59:18.661Z,74.46
